createdAt,value
2024-02-28T00:02:05.792Z,970.09
2024-02-28T00:12:06.040Z,970.14
2024-02-28T00:22:06.340Z,970.07
2024-02-28T00:32:06.186Z,970.10
2024-02-28T00:42:06.588Z,970.16
2024-02-28T00:52:06.844Z,970.15
2024-02-28T01:02:06.838Z,970.19
2024-02-28T01:12:07.095Z,970.19
2024-02-28T01:22:07.094Z,970.11
2024-02-28T01:32:07.345Z,970.11
2024-02-28T01:42:07.649Z,970.23
2024-02-28T01:52:07.898Z,970.36
2024-02-28T02:02:08.008Z,970.39
2024-02-28T02:12:07.958Z,970.52
2024-02-28T02:22:08.450Z,970.67
2024-02-28T02:32:08.405Z,970.82
2024-02-28T02:42:08.704Z,970.97
2024-02-28T02:52:08.640Z,971.01
2024-02-28T03:02:09.559Z,971.03
2024-02-28T03:12:09.234Z,971.07
2024-02-28T03:22:09.256Z,971.33
2024-02-28T03:32:09.334Z,971.43
2024-02-28T03:42:09.549Z,971.46
2024-02-28T03:52:10.008Z,971.57
2024-02-28T04:02:10.045Z,971.52
2024-02-28T04:12:10.014Z,971.49
2024-02-28T04:22:10.252Z,971.72
2024-02-28T04:32:10.626Z,971.68
2024-02-28T04:42:10.532Z,971.72
2024-02-28T04:52:10.758Z,971.95
2024-02-28T05:02:11.059Z,971.90
2024-02-28T05:12:11.309Z,972.03
2024-02-28T05:22:11.192Z,972.08
2024-02-28T05:32:11.571Z,972.23
2024-02-28T05:42:11.562Z,972.36
2024-02-28T05:52:11.745Z,972.63
2024-02-28T06:02:12.118Z,972.65
2024-02-28T06:12:12.376Z,972.69
2024-02-28T06:22:12.374Z,972.82
2024-02-28T06:32:12.612Z,972.92
2024-02-28T06:42:12.913Z,973.02
2024-02-28T06:52:12.862Z,973.23
2024-02-28T07:02:13.284Z,973.35
2024-02-28T07:12:13.735Z,973.53
2024-02-28T07:22:13.406Z,973.66
2024-02-28T07:32:13.677Z,973.64
2024-02-28T07:42:13.666Z,973.75
2024-02-28T07:52:13.917Z,973.74
2024-02-28T08:02:14.653Z,973.82
2024-02-28T08:12:14.166Z,973.79
2024-02-28T08:22:14.483Z,973.97
2024-02-28T08:32:14.721Z,974.00
2024-02-28T08:42:14.741Z,974.06
2024-02-28T08:52:14.733Z,974.14
2024-02-28T09:02:15.003Z,974.20
2024-02-28T09:12:15.225Z,974.22
2024-02-28T09:22:15.521Z,974.31
2024-02-28T09:32:15.471Z,974.26
2024-02-28T09:42:15.776Z,974.35
2024-02-28T09:52:16.036Z,974.41
2024-02-28T10:02:16.034Z,974.55
2024-02-28T10:12:16.591Z,974.65
2024-02-28T10:22:16.588Z,974.73
2024-02-28T10:32:16.528Z,974.79
2024-02-28T10:42:16.831Z,974.77
2024-02-28T10:52:16.691Z,974.74
2024-02-28T11:02:17.078Z,974.96
2024-02-28T11:12:17.328Z,974.96
2024-02-28T11:22:17.325Z,974.85
2024-02-28T11:32:17.629Z,974.87
2024-02-28T11:42:17.896Z,974.92
2024-02-28T11:52:18.135Z,974.93
2024-02-28T12:02:18.119Z,975.08
2024-02-28T12:12:18.073Z,975.01
2024-02-28T12:22:18.385Z,974.98
2024-02-28T12:32:18.630Z,974.92
2024-02-28T12:42:19.255Z,974.96
2024-02-28T12:52:18.896Z,974.82
2024-02-28T13:02:18.986Z,974.89
2024-02-28T13:12:19.180Z,974.82
2024-02-28T13:22:19.469Z,974.81
2024-02-28T13:32:19.691Z,974.75
2024-02-28T13:42:20.141Z,974.73
2024-02-28T13:52:19.972Z,974.77
2024-02-28T14:02:20.403Z,974.75
2024-02-28T14:12:20.189Z,974.75
2024-02-28T14:22:20.485Z,974.84
2024-02-28T14:32:21.056Z,974.72
2024-02-28T14:42:20.971Z,974.80
2024-02-28T14:52:21.309Z,974.84
2024-02-28T15:02:20.990Z,974.80
2024-02-28T15:12:21.303Z,974.82
2024-02-28T15:22:21.232Z,974.74
2024-02-28T15:32:21.546Z,974.68
2024-02-28T15:42:22.107Z,974.79
2024-02-28T15:52:21.739Z,974.81
2024-02-28T16:02:22.063Z,974.78
2024-02-28T16:12:22.314Z,974.91
2024-02-28T16:22:22.386Z,974.94
2024-02-28T16:32:22.537Z,974.94
2024-02-28T16:42:22.853Z,974.98
2024-02-28T16:52:22.836Z,974.96
2024-02-28T17:02:23.417Z,975.02
2024-02-28T17:12:23.371Z,975.04
2024-02-28T17:22:23.791Z,975.14
2024-02-28T17:32:23.623Z,975.22
2024-02-28T17:42:23.981Z,975.25
2024-02-28T17:52:23.855Z,975.37
2024-02-28T18:02:24.149Z,975.38
2024-02-28T18:12:24.751Z,975.49
2024-02-28T18:22:24.489Z,975.35
2024-02-28T18:32:24.672Z,975.34
2024-02-28T18:42:25.167Z,975.39
2024-02-28T18:52:24.917Z,975.29
2024-02-28T19:02:25.228Z,975.27
2024-02-28T19:12:25.462Z,975.23
2024-02-28T19:22:25.363Z,975.17
2024-02-28T19:32:26.036Z,975.23
2024-02-28T19:42:26.014Z,975.17
2024-02-28T19:52:25.997Z,975.07
2024-02-28T20:02:26.266Z,974.96
2024-02-28T20:12:26.553Z,974.93
2024-02-28T20:22:26.863Z,974.89
2024-02-28T20:32:26.767Z,974.81
2024-02-28T20:42:27.090Z,974.93
2024-02-28T20:52:27.037Z,974.82
2024-02-28T21:02:27.304Z,974.76
2024-02-28T21:12:27.576Z,974.68
2024-02-28T21:22:27.647Z,974.55
2024-02-28T21:32:27.877Z,974.53
2024-02-28T21:42:27.818Z,974.63
2024-02-28T21:52:28.062Z,974.54
2024-02-28T22:02:28.359Z,974.59
2024-02-28T22:12:28.402Z,974.56
2024-02-28T22:22:28.607Z,974.72
2024-02-28T22:32:28.603Z,974.59
2024-02-28T22:42:28.899Z,974.46
2024-02-28T22:52:29.108Z,974.30
2024-02-28T23:02:29.107Z,974.21
2024-02-28T23:12:29.389Z,974.17
2024-02-28T23:22:29.372Z,974.20
2024-02-28T23:32:29.630Z,974.06
2024-02-28T23:42:30.021Z,974.12
2024-02-28T23:52:30.168Z,973.93
